Gobblers Point, Arkansas
Current Conditions -  °F | °C
As of 1:53 PM on Friday 28 Nov 2014 (Local Time) from KRUE Reporting Station
Clear Clear  
Wind Chill: 58°   Ceiling: Unl
Heat Index: 58°   Visibility: 10mi
Dew Point: 34°   Wind: 10mph
Humidity: 41%   Direction: 170°S
Pressure: 30.1"   Gusts: NA
Location:  35.3927°N, 92.8078°W
Report Text: KRUE 281953Z AUTO 17009KT 10SM CLR 14/01 A3010 RMK AO2 SLP188 T01440011
Loading
Personal Weather Stations






























Interactive Weather Map New forecast layout! Learn more

10-Day Weather Forecast

Advertisements
Track Severe Weather on mobile